sensor_id;sensor_type;location;lat;lon;timestamp;pressure;altitude;pressure_sealevel;temperature;humidity
56668;BME280;42542;48.360;10.958;2023-02-14T00:01:27;97963.00;;;0.54;100.00
56668;BME280;42542;48.360;10.958;2023-02-14T00:04:38;97968.44;;;0.50;100.00
56668;BME280;42542;48.360;10.958;2023-02-14T00:07:54;97967.69;;;0.46;100.00
56668;BME280;42542;48.360;10.958;2023-02-14T00:11:00;97969.50;;;0.44;100.00
56668;BME280;42542;48.360;10.958;2023-02-14T00:14:05;97979.34;;;0.39;100.00
56668;BME280;42542;48.360;10.958;2023-02-14T00:17:26;97979.53;;;0.34;100.00
56668;BME280;42542;48.360;10.958;2023-02-14T00:20:31;97972.59;;;0.32;100.00
56668;BME280;42542;48.360;10.958;2023-02-14T00:23:35;97972.53;;;0.33;100.00
56668;BME280;42542;48.360;10.958;2023-02-14T00:26:38;97976.94;;;0.33;100.00
56668;BME280;42542;48.360;10.958;2023-02-14T00:29:42;97976.94;;;0.33;100.00
56668;BME280;42542;48.360;10.958;2023-02-14T00:32:49;97975.19;;;0.33;100.00
56668;BME280;42542;48.360;10.958;2023-02-14T00:35:51;97968.97;;;0.36;100.00
56668;BME280;42542;48.360;10.958;2023-02-14T00:38:55;97974.22;;;0.36;100.00
56668;BME280;42542;48.360;10.958;2023-02-14T00:42:00;97977.81;;;0.33;100.00
56668;BME280;42542;48.360;10.958;2023-02-14T00:45:06;97976.03;;;0.34;100.00
56668;BME280;42542;48.360;10.958;2023-02-14T00:48:09;97967.22;;;0.35;100.00
56668;BME280;42542;48.360;10.958;2023-02-14T00:51:18;97968.09;;;0.35;100.00
56668;BME280;42542;48.360;10.958;2023-02-14T00:54:25;97976.94;;;0.33;100.00
56668;BME280;42542;48.360;10.958;2023-02-14T00:57:34;97979.81;;;0.27;100.00
56668;BME280;42542;48.360;10.958;2023-02-14T01:00:43;97986.19;;;0.20;100.00
56668;BME280;42542;48.360;10.958;2023-02-14T01:03:49;97987.84;;;0.22;100.00
56668;BME280;42542;48.360;10.958;2023-02-14T01:06:53;97981.72;;;0.22;100.00
56668;BME280;42542;48.360;10.958;2023-02-14T01:09:56;97977.28;;;0.24;100.00
56668;BME280;42542;48.360;10.958;2023-02-14T01:13:00;97984.25;;;0.25;100.00
56668;BME280;42542;48.360;10.958;2023-02-14T01:16:07;97985.13;;;0.25;100.00
56668;BME280;42542;48.360;10.958;2023-02-14T01:19:11;97976.38;;;0.25;100.00
56668;BME280;42542;48.360;10.958;2023-02-14T01:22:19;97984.19;;;0.26;100.00
56668;BME280;42542;48.360;10.958;2023-02-14T01:25:26;97985.13;;;0.25;100.00
56668;BME280;42542;48.360;10.958;2023-02-14T01:28:29;97987.06;;;0.20;100.00
56668;BME280;42542;48.360;10.958;2023-02-14T01:31:36;97988.06;;;0.16;100.00
56668;BME280;42542;48.360;10.958;2023-02-14T01:34:48;97990.75;;;0.15;100.00
56668;BME280;42542;48.360;10.958;2023-02-14T01:37:51;97980.19;;;0.16;100.00
56668;BME280;42542;48.360;10.958;2023-02-14T01:40:55;97975.81;;;0.15;100.00
56668;BME280;42542;48.360;10.958;2023-02-14T01:44:00;97987.28;;;0.14;100.00
56668;BME280;42542;48.360;10.958;2023-02-14T01:47:08;97977.59;;;0.15;100.00
56668;BME280;42542;48.360;10.958;2023-02-14T01:50:16;97981.94;;;0.16;100.00
56668;BME280;42542;48.360;10.958;2023-02-14T01:53:26;97979.28;;;0.17;100.00
56668;BME280;42542;48.360;10.958;2023-02-14T01:56:40;97959.09;;;0.18;100.00
56668;BME280;42542;48.360;10.958;2023-02-14T01:59:51;97965.22;;;0.18;100.00
56668;BME280;42542;48.360;10.958;2023-02-14T02:02:57;97974.78;;;0.21;100.00
56668;BME280;42542;48.360;10.958;2023-02-14T02:06:14;97973.00;;;0.21;100.00
56668;BME280;42542;48.360;10.958;2023-02-14T02:09:28;97974.69;;;0.22;100.00
56668;BME280;42542;48.360;10.958;2023-02-14T02:12:34;97970.41;;;0.20;100.00
56668;BME280;42542;48.360;10.958;2023-02-14T02:16:58;97961.53;;;0.22;100.00
56668;BME280;42542;48.360;10.958;2023-02-14T02:20:02;97966.75;;;0.24;100.00
56668;BME280;42542;48.360;10.958;2023-02-14T02:23:44;97971.16;;;0.23;100.00
56668;BME280;42542;48.360;10.958;2023-02-14T02:27:06;97972.06;;;0.22;100.00
56668;BME280;42542;48.360;10.958;2023-02-14T02:30:35;97963.31;;;0.22;100.00
56668;BME280;42542;48.360;10.958;2023-02-14T02:49:07;97971.66;;;0.10;100.00
56668;BME280;42542;48.360;10.958;2023-02-14T02:52:19;97975.47;;;0.01;100.00
56668;BME280;42542;48.360;10.958;2023-02-14T02:59:18;97973.78;;;0.00;100.00
56668;BME280;42542;48.360;10.958;2023-02-14T03:02:51;97977.19;;;0.02;100.00
56668;BME280;42542;48.360;10.958;2023-02-14T03:06:32;97978.00;;;0.04;100.00
56668;BME280;42542;48.360;10.958;2023-02-14T03:31:32;97965.81;;;0.02;100.00
56668;BME280;42542;48.360;10.958;2023-02-14T03:41:00;97958.19;;;-0.06;100.00
56668;BME280;42542;48.360;10.958;2023-02-14T03:44:08;97963.44;;;-0.06;100.00
56668;BME280;42542;48.360;10.958;2023-02-14T03:47:17;97964.25;;;-0.04;100.00
56668;BME280;42542;48.360;10.958;2023-02-14T03:50:24;97965.31;;;-0.08;100.00
56668;BME280;42542;48.360;10.958;2023-02-14T03:53:34;97946.19;;;-0.13;100.00
56668;BME280;42542;48.360;10.958;2023-02-14T03:56:48;97943.47;;;-0.10;100.00
56668;BME280;42542;48.360;10.958;2023-02-14T03:59:53;97954.72;;;-0.07;100.00
56668;BME280;42542;48.360;10.958;2023-02-14T04:03:01;97952.06;;;-0.07;100.00
56668;BME280;42542;48.360;10.958;2023-02-14T04:06:07;97960.81;;;-0.06;100.00
56668;BME280;42542;48.360;10.958;2023-02-14T04:09:12;97971.41;;;-0.08;100.00
56668;BME280;42542;48.360;10.958;2023-02-14T04:12:15;97969.69;;;-0.09;100.00
56668;BME280;42542;48.360;10.958;2023-02-14T04:15:42;97965.22;;;-0.07;100.00
56668;BME280;42542;48.360;10.958;2023-02-14T04:18:46;97972.25;;;-0.07;100.00
56668;BME280;42542;48.360;10.958;2023-02-14T04:22:10;97973.09;;;-0.07;100.00
56668;BME280;42542;48.360;10.958;2023-02-14T04:25:12;97965.22;;;-0.07;100.00
56668;BME280;42542;48.360;10.958;2023-02-14T04:28:15;97979.19;;;-0.05;100.00
56668;BME280;42542;48.360;10.958;2023-02-14T04:31:16;97988.16;;;-0.10;100.00
56668;BME280;42542;48.360;10.958;2023-02-14T04:34:20;97966.44;;;-0.15;100.00
56668;BME280;42542;48.360;10.958;2023-02-14T04:37:24;97963.94;;;-0.20;100.00
56668;BME280;42542;48.360;10.958;2023-02-14T04:40:31;97970.00;;;-0.18;100.00
56668;BME280;42542;48.360;10.958;2023-02-14T04:43:35;97982.13;;;-0.14;100.00
56668;BME280;42542;48.360;10.958;2023-02-14T04:46:40;97963.81;;;-0.15;100.00
56668;BME280;42542;48.360;10.958;2023-02-14T04:49:43;97955.06;;;-0.16;100.00
56668;BME280;42542;48.360;10.958;2023-02-14T04:52:48;97956.91;;;-0.19;100.00
56668;BME280;42542;48.360;10.958;2023-02-14T04:55:52;97956.97;;;-0.21;100.00
56668;BME280;42542;48.360;10.958;2023-02-14T04:59:00;97960.41;;;-0.19;100.00
56668;BME280;42542;48.360;10.958;2023-02-14T05:02:05;97950.66;;;-0.15;100.00
56668;BME280;42542;48.360;10.958;2023-02-14T05:05:07;97952.34;;;-0.14;100.00
56668;BME280;42542;48.360;10.958;2023-02-14T05:08:11;97943.63;;;-0.15;100.00
56668;BME280;42542;48.360;10.958;2023-02-14T05:11:16;97948.81;;;-0.13;100.00
56668;BME280;42542;48.360;10.958;2023-02-14T05:14:21;97942.69;;;-0.14;100.00
56668;BME280;42542;48.360;10.958;2023-02-14T05:17:25;97947.94;;;-0.14;100.00
56668;BME280;42542;48.360;10.958;2023-02-14T05:20:30;97938.38;;;-0.15;100.00
56668;BME280;42542;48.360;10.958;2023-02-14T05:23:41;97933.22;;;-0.18;100.00
56668;BME280;42542;48.360;10.958;2023-02-14T05:26:43;97938.53;;;-0.19;100.00
56668;BME280;42542;48.360;10.958;2023-02-14T05:29:45;97940.34;;;-0.21;100.00
56668;BME280;42542;48.360;10.958;2023-02-14T05:32:47;97949.94;;;-0.20;100.00
56668;BME280;42542;48.360;10.958;2023-02-14T05:35:51;97954.41;;;-0.22;100.00
56668;BME280;42542;48.360;10.958;2023-02-14T05:38:54;97950.97;;;-0.24;100.00
56668;BME280;42542;48.360;10.958;2023-02-14T05:41:58;97954.47;;;-0.24;100.00
56668;BME280;42542;48.360;10.958;2023-02-14T05:45:00;97943.13;;;-0.26;100.00
56668;BME280;42542;48.360;10.958;2023-02-14T05:48:03;97943.97;;;-0.24;100.00
56668;BME280;42542;48.360;10.958;2023-02-14T05:51:08;97949.31;;;-0.27;100.00
56668;BME280;42542;48.360;10.958;2023-02-14T05:54:11;97946.72;;;-0.28;100.00
56668;BME280;42542;48.360;10.958;2023-02-14T05:57:17;97950.28;;;-0.29;100.00
56668;BME280;42542;48.360;10.958;2023-02-14T06:00:21;97948.53;;;-0.29;100.00
56668;BME280;42542;48.360;10.958;2023-02-14T06:03:24;97948.44;;;-0.27;100.00
56668;BME280;42542;48.360;10.958;2023-02-14T06:06:31;97951.06;;;-0.27;100.00
56668;BME280;42542;48.360;10.958;2023-02-14T06:09:36;97931.09;;;-0.31;100.00
56668;BME280;42542;48.360;10.958;2023-02-14T06:12:40;97941.63;;;-0.33;100.00
56668;BME280;42542;48.360;10.958;2023-02-14T06:15:50;97937.50;;;-0.40;100.00
56668;BME280;42542;48.360;10.958;2023-02-14T06:18:56;97937.56;;;-0.42;100.00
56668;BME280;42542;48.360;10.958;2023-02-14T06:21:58;97924.59;;;-0.46;100.00
56668;BME280;42542;48.360;10.958;2023-02-14T06:25:02;97937.56;;;-0.42;100.00
56668;BME280;42542;48.360;10.958;2023-02-14T06:28:06;97956.97;;;-0.46;100.00
56668;BME280;42542;48.360;10.958;2023-02-14T06:31:15;97950.81;;;-0.45;100.00
56668;BME280;42542;48.360;10.958;2023-02-14T06:34:21;97936.78;;;-0.44;100.00
56668;BME280;42542;48.360;10.958;2023-02-14T06:37:24;97951.56;;;-0.41;100.00
56668;BME280;42542;48.360;10.958;2023-02-14T06:40:28;97947.97;;;-0.38;100.00
56668;BME280;42542;48.360;10.958;2023-02-14T06:43:32;97958.44;;;-0.37;100.00
56668;BME280;42542;48.360;10.958;2023-02-14T06:46:37;97948.78;;;-0.36;100.00
56668;BME280;42542;48.360;10.958;2023-02-14T06:49:40;97947.94;;;-0.37;100.00
56668;BME280;42542;48.360;10.958;2023-02-14T06:53:09;97954.94;;;-0.37;100.00
56668;BME280;42542;48.360;10.958;2023-02-14T06:56:13;97947.13;;;-0.39;100.00
56668;BME280;42542;48.360;10.958;2023-02-14T06:59:20;97956.72;;;-0.38;100.00
56668;BME280;42542;48.360;10.958;2023-02-14T07:02:24;97952.41;;;-0.41;100.00
56668;BME280;42542;48.360;10.958;2023-02-14T07:05:31;97953.44;;;-0.45;100.00
56668;BME280;42542;48.360;10.958;2023-02-14T07:08:37;97959.66;;;-0.47;100.00
56668;BME280;42542;48.360;10.958;2023-02-14T07:11:43;97972.88;;;-0.50;100.00
56668;BME280;42542;48.360;10.958;2023-02-14T07:14:50;97957.09;;;-0.50;100.00
56668;BME280;42542;48.360;10.958;2023-02-14T07:17:51;97959.81;;;-0.52;100.00
56668;BME280;42542;48.360;10.958;2023-02-14T07:20:57;97957.19;;;-0.52;100.00
56668;BME280;42542;48.360;10.958;2023-02-14T07:24:00;97952.72;;;-0.50;100.00
56668;BME280;42542;48.360;10.958;2023-02-14T07:27:05;97946.59;;;-0.50;100.00
56668;BME280;42542;48.360;10.958;2023-02-14T07:30:10;97951.72;;;-0.46;100.00
56668;BME280;42542;48.360;10.958;2023-02-14T07:33:15;97945.47;;;-0.43;100.00
56668;BME280;42542;48.360;10.958;2023-02-14T07:36:27;97944.53;;;-0.41;100.00
56668;BME280;42542;48.360;10.958;2023-02-14T07:39:31;97948.84;;;-0.38;100.00
56668;BME280;42542;48.360;10.958;2023-02-14T07:42:52;97943.44;;;-0.35;100.00
56668;BME280;42542;48.360;10.958;2023-02-14T07:46:04;97936.47;;;-0.36;100.00
56668;BME280;42542;48.360;10.958;2023-02-14T07:49:18;97945.16;;;-0.34;100.00
56668;BME280;42542;48.360;10.958;2023-02-14T07:52:22;97932.94;;;-0.35;100.00
56668;BME280;42542;48.360;10.958;2023-02-14T07:55:25;97942.53;;;-0.34;100.00
56668;BME280;42542;48.360;10.958;2023-02-14T07:58:31;97941.47;;;-0.28;100.00
56668;BME280;42542;48.360;10.958;2023-02-14T08:01:38;97937.16;;;-0.29;100.00
56668;BME280;42542;48.360;10.958;2023-02-14T08:04:51;97946.69;;;-0.27;100.00
56668;BME280;42542;48.360;10.958;2023-02-14T08:07:54;97939.56;;;-0.23;100.00
56668;BME280;42542;48.360;10.958;2023-02-14T08:11:01;97936.88;;;-0.22;100.00
56668;BME280;42542;48.360;10.958;2023-02-14T08:14:05;97936.03;;;-0.22;100.00
56668;BME280;42542;48.360;10.958;2023-02-14T08:17:12;97924.06;;;-0.31;100.00
56668;BME280;42542;48.360;10.958;2023-02-14T08:20:15;97943.13;;;-0.26;100.00
56668;BME280;42542;48.360;10.958;2023-02-14T08:23:21;97945.72;;;-0.24;100.00
56668;BME280;42542;48.360;10.958;2023-02-14T08:26:27;97938.69;;;-0.24;100.00
56668;BME280;42542;48.360;10.958;2023-02-14T08:29:32;97931.63;;;-0.22;100.00
56668;BME280;42542;48.360;10.958;2023-02-14T08:32:37;97935.09;;;-0.21;100.00
56668;BME280;42542;48.360;10.958;2023-02-14T08:35:50;97933.31;;;-0.21;100.00
56668;BME280;42542;48.360;10.958;2023-02-14T08:39:04;97932.34;;;-0.18;100.00
56668;BME280;42542;48.360;10.958;2023-02-14T08:42:16;97936.75;;;-0.19;100.00
56668;BME280;42542;48.360;10.958;2023-02-14T08:45:19;97933.19;;;-0.16;100.00
56668;BME280;42542;48.360;10.958;2023-02-14T08:48:24;97927.78;;;-0.13;100.00
56668;BME280;42542;48.360;10.958;2023-02-14T08:51:28;97936.59;;;-0.14;100.00
56668;BME280;42542;48.360;10.958;2023-02-14T08:54:33;97936.53;;;-0.13;100.00
56668;BME280;42542;48.360;10.958;2023-02-14T08:57:39;97934.75;;;-0.12;100.00
56668;BME280;42542;48.360;10.958;2023-02-14T09:00:46;97940.72;;;-0.07;100.00
56668;BME280;42542;48.360;10.958;2023-02-14T09:03:57;97931.81;;;-0.03;100.00
56668;BME280;42542;48.360;10.958;2023-02-14T09:07:03;97932.63;;;-0.01;100.00
56668;BME280;42542;48.360;10.958;2023-02-14T09:10:13;97929.88;;;0.02;100.00
56668;BME280;42542;48.360;10.958;2023-02-14T09:13:21;97932.50;;;0.02;100.00
56668;BME280;42542;48.360;10.958;2023-02-14T09:16:26;97937.03;;;-0.02;100.00
56668;BME280;42542;48.360;10.958;2023-02-14T09:19:28;97927.38;;;-0.01;100.00
56668;BME280;42542;48.360;10.958;2023-02-14T09:22:32;97931.59;;;0.03;100.00
56668;BME280;42542;48.360;10.958;2023-02-14T09:25:36;97924.34;;;0.10;100.00
56668;BME280;42542;48.360;10.958;2023-02-14T09:28:40;97932.22;;;0.10;100.00
56668;BME280;42542;48.360;10.958;2023-02-14T09:31:44;97925.09;;;0.13;100.00
56668;BME280;42542;48.360;10.958;2023-02-14T09:34:48;97924.19;;;0.14;100.00
56668;BME280;42542;48.360;10.958;2023-02-14T09:38:13;97927.72;;;0.13;100.00
56668;BME280;42542;48.360;10.958;2023-02-14T09:45:03;97932.06;;;0.14;100.00
56668;BME280;42542;48.360;10.958;2023-02-14T09:48:16;97932.00;;;0.16;100.00
56668;BME280;42542;48.360;10.958;2023-02-14T09:51:26;97936.19;;;0.21;100.00
56668;BME280;42542;48.360;10.958;2023-02-14T09:54:34;97932.63;;;0.22;100.00
56668;BME280;42542;48.360;10.958;2023-02-14T09:57:48;97921.09;;;0.26;100.00
56668;BME280;42542;48.360;10.958;2023-02-14T10:01:21;97917.38;;;0.32;100.00
56668;BME280;42542;48.360;10.958;2023-02-14T10:04:57;97926.56;;;0.44;100.00
56668;BME280;42542;48.360;10.958;2023-02-14T10:11:39;97917.66;;;0.48;100.00
56668;BME280;42542;48.360;10.958;2023-02-14T10:14:52;97922.97;;;0.46;100.00
56668;BME280;42542;48.360;10.958;2023-02-14T10:18:13;97913.41;;;0.44;100.00
56668;BME280;42542;48.360;10.958;2023-02-14T10:21:32;97912.69;;;0.40;100.00
56668;BME280;42542;48.360;10.958;2023-02-14T10:24:46;97911.88;;;0.38;100.00
56668;BME280;42542;48.360;10.958;2023-02-14T10:27:55;97899.53;;;0.40;100.00
56668;BME280;42542;48.360;10.958;2023-02-14T10:31:21;97911.34;;;0.52;100.00
56668;BME280;42542;48.360;10.958;2023-02-14T10:34:50;97911.94;;;0.58;100.00
56668;BME280;42542;48.360;10.958;2023-02-14T10:48:03;97908.09;;;0.67;100.00
56668;BME280;42542;48.360;10.958;2023-02-14T10:51:14;97906.34;;;0.67;100.00
56668;BME280;42542;48.360;10.958;2023-02-14T10:54:36;97899.34;;;0.66;100.00
56668;BME280;42542;48.360;10.958;2023-02-14T10:57:44;97880.03;;;0.67;100.00
56668;BME280;42542;48.360;10.958;2023-02-14T11:01:04;97879.59;;;0.78;100.00
56668;BME280;42542;48.360;10.958;2023-02-14T11:04:15;97878.44;;;0.85;100.00
56668;BME280;42542;48.360;10.958;2023-02-14T11:07:19;97870.16;;;0.94;100.00
56668;BME280;42542;48.360;10.958;2023-02-14T11:10:26;97862.75;;;1.04;100.00
56668;BME280;42542;48.360;10.958;2023-02-14T11:13:42;97870.31;;;1.11;100.00
56668;BME280;42542;48.360;10.958;2023-02-14T11:16:52;97856.09;;;1.15;100.00
56668;BME280;42542;48.360;10.958;2023-02-14T11:20:27;97862.00;;;1.22;100.00
56668;BME280;42542;48.360;10.958;2023-02-14T11:23:46;97851.34;;;1.24;100.00
56668;BME280;42542;48.360;10.958;2023-02-14T11:26:50;97853.03;;;1.26;100.00
56668;BME280;42542;48.360;10.958;2023-02-14T11:29:57;97839.59;;;1.32;100.00
56668;BME280;42542;48.360;10.958;2023-02-14T11:33:02;97838.78;;;1.30;100.00
56668;BME280;42542;48.360;10.958;2023-02-14T11:36:13;97832.69;;;1.30;100.00
56668;BME280;42542;48.360;10.958;2023-02-14T11:39:33;97826.22;;;1.37;100.00
56668;BME280;42542;48.360;10.958;2023-02-14T11:42:45;97830.31;;;1.44;100.00
56668;BME280;42542;48.360;10.958;2023-02-14T11:46:14;97828.31;;;1.49;100.00
56668;BME280;42542;48.360;10.958;2023-02-14T11:49:31;97819.34;;;1.53;100.00
56668;BME280;42542;48.360;10.958;2023-02-14T11:52:44;97821.06;;;1.54;100.00
56668;BME280;42542;48.360;10.958;2023-02-14T11:55:56;97811.09;;;1.61;100.00
56668;BME280;42542;48.360;10.958;2023-02-14T11:59:00;97819.59;;;1.67;100.00
56668;BME280;42542;48.360;10.958;2023-02-14T12:05:26;97808.84;;;1.72;100.00
56668;BME280;42542;48.360;10.958;2023-02-14T12:08:30;97808.63;;;1.76;100.00
56668;BME280;42542;48.360;10.958;2023-02-14T12:11:34;97809.16;;;1.84;100.00
56668;BME280;42542;48.360;10.958;2023-02-14T12:14:38;97800.31;;;1.85;100.00
56668;BME280;42542;48.360;10.958;2023-02-14T12:17:42;97800.09;;;1.90;100.00
56668;BME280;42542;48.360;10.958;2023-02-14T12:24:17;97793.31;;;2.03;100.00
56668;BME280;42542;48.360;10.958;2023-02-14T12:27:31;97784.22;;;2.10;100.00
56668;BME280;42542;48.360;10.958;2023-02-14T12:30:41;97793.63;;;2.16;100.00
56668;BME280;42542;48.360;10.958;2023-02-14T12:33:49;97782.13;;;2.17;100.00
56668;BME280;42542;48.360;10.958;2023-02-14T12:37:15;97776.72;;;2.20;99.84
56668;BME280;42542;48.360;10.958;2023-02-14T12:43:54;97754.25;;;2.30;100.00
56668;BME280;42542;48.360;10.958;2023-02-14T12:47:17;97767.00;;;2.39;99.75
56668;BME280;42542;48.360;10.958;2023-02-14T12:50:52;97754.66;;;2.40;100.00
56668;BME280;42542;48.360;10.958;2023-02-14T12:57:35;97749.63;;;2.52;99.03
56668;BME280;42542;48.360;10.958;2023-02-14T13:04:43;97738.94;;;2.55;98.66
56668;BME280;42542;48.360;10.958;2023-02-14T13:15:15;97716.13;;;2.71;98.45
56668;BME280;42542;48.360;10.958;2023-02-14T13:21:54;97707.75;;;2.81;98.17
56668;BME280;42542;48.360;10.958;2023-02-14T13:25:08;97709.91;;;2.90;98.28
56668;BME280;42542;48.360;10.958;2023-02-14T13:28:17;97711.53;;;2.92;98.37
56668;BME280;42542;48.360;10.958;2023-02-14T13:31:27;97717.28;;;3.00;97.99
56668;BME280;42542;48.360;10.958;2023-02-14T13:34:48;97704.16;;;2.99;96.99
56668;BME280;42542;48.360;10.958;2023-02-14T13:37:56;97713.47;;;3.06;97.73
56668;BME280;42542;48.360;10.958;2023-02-14T13:41:01;97713.59;;;3.03;96.90
56668;BME280;42542;48.360;10.958;2023-02-14T13:44:07;97708.31;;;3.03;97.15
56668;BME280;42542;48.360;10.958;2023-02-14T13:47:19;97706.53;;;3.03;95.43
56668;BME280;42542;48.360;10.958;2023-02-14T13:50:22;97690.00;;;3.00;95.86
56668;BME280;42542;48.360;10.958;2023-02-14T13:53:46;97692.81;;;2.97;95.62
56668;BME280;42542;48.360;10.958;2023-02-14T13:56:49;97686.44;;;3.01;96.75
56668;BME280;42542;48.360;10.958;2023-02-14T14:10:44;97686.78;;;3.28;96.82
56668;BME280;42542;48.360;10.958;2023-02-14T14:16:59;97680.06;;;3.38;95.86
56668;BME280;42542;48.360;10.958;2023-02-14T14:23:35;97674.44;;;3.44;95.83
56668;BME280;42542;48.360;10.958;2023-02-14T14:26:56;97674.44;;;3.44;95.37
56668;BME280;42542;48.360;10.958;2023-02-14T14:30:06;97680.66;;;3.43;95.10
56668;BME280;42542;48.360;10.958;2023-02-14T14:33:29;97677.94;;;3.44;95.26
56668;BME280;42542;48.360;10.958;2023-02-14T14:36:34;97680.66;;;3.43;94.92
56668;BME280;42542;48.360;10.958;2023-02-14T14:39:37;97680.66;;;3.43;94.66
56668;BME280;42542;48.360;10.958;2023-02-14T14:42:41;97673.75;;;3.40;94.60
56668;BME280;42542;48.360;10.958;2023-02-14T14:45:46;97680.94;;;3.38;94.85
56668;BME280;42542;48.360;10.958;2023-02-14T14:48:54;97672.91;;;3.40;95.00
56668;BME280;42542;48.360;10.958;2023-02-14T14:51:56;97677.31;;;3.39;95.45
56668;BME280;42542;48.360;10.958;2023-02-14T14:55:02;97679.88;;;3.41;95.73
56668;BME280;42542;48.360;10.958;2023-02-14T14:58:37;97673.94;;;3.37;94.82
56668;BME280;42542;48.360;10.958;2023-02-14T15:01:43;97671.44;;;3.34;95.00
56668;BME280;42542;48.360;10.958;2023-02-14T15:04:49;97675.88;;;3.34;95.60
56668;BME280;42542;48.360;10.958;2023-02-14T15:07:51;97675.94;;;3.32;95.24
56668;BME280;42542;48.360;10.958;2023-02-14T15:14:20;97664.63;;;3.30;95.11
56668;BME280;42542;48.360;10.958;2023-02-14T15:17:28;97667.50;;;3.26;95.85
56668;BME280;42542;48.360;10.958;2023-02-14T15:20:37;97671.84;;;3.27;95.29
56668;BME280;42542;48.360;10.958;2023-02-14T15:23:41;97669.38;;;3.24;95.37
56668;BME280;42542;48.360;10.958;2023-02-14T15:26:50;97669.63;;;3.19;95.67
56668;BME280;42542;48.360;10.958;2023-02-14T15:30:00;97665.44;;;3.15;95.81
56668;BME280;42542;48.360;10.958;2023-02-14T15:33:08;97662.88;;;3.13;96.02
56668;BME280;42542;48.360;10.958;2023-02-14T15:36:17;97664.81;;;3.10;96.11
56668;BME280;42542;48.360;10.958;2023-02-14T15:39:27;97666.69;;;3.08;95.90
56668;BME280;42542;48.360;10.958;2023-02-14T15:42:33;97661.75;;;3.02;96.12
56668;BME280;42542;48.360;10.958;2023-02-14T15:45:51;97666.31;;;2.98;95.91
56668;BME280;42542;48.360;10.958;2023-02-14T15:49:09;97661.69;;;2.86;96.12
56668;BME280;42542;48.360;10.958;2023-02-14T15:52:15;97661.69;;;2.86;96.86
56668;BME280;42542;48.360;10.958;2023-02-14T15:55:27;97665.31;;;2.84;96.77
56668;BME280;42542;48.360;10.958;2023-02-14T15:58:35;97662.06;;;2.79;97.38
56668;BME280;42542;48.360;10.958;2023-02-14T16:01:51;97672.72;;;2.77;97.69
56668;BME280;42542;48.360;10.958;2023-02-14T16:05:05;97670.06;;;2.77;97.86
56668;BME280;42542;48.360;10.958;2023-02-14T16:08:36;97660.50;;;2.74;97.52
56668;BME280;42542;48.360;10.958;2023-02-14T16:11:40;97657.25;;;2.69;97.49
56668;BME280;42542;48.360;10.958;2023-02-14T16:14:42;97673.09;;;2.69;97.44
56668;BME280;42542;48.360;10.958;2023-02-14T16:17:46;97675.13;;;2.64;97.10
56668;BME280;42542;48.360;10.958;2023-02-14T16:20:49;97670.16;;;2.58;97.27
56668;BME280;42542;48.360;10.958;2023-02-14T16:27:13;97671.31;;;2.53;97.37
56668;BME280;42542;48.360;10.958;2023-02-14T16:30:20;97672.47;;;2.47;97.73
56668;BME280;42542;48.360;10.958;2023-02-14T16:33:37;97675.28;;;2.44;97.47
56668;BME280;42542;48.360;10.958;2023-02-14T16:36:42;97670.16;;;2.41;97.82
56668;BME280;42542;48.360;10.958;2023-02-14T16:39:46;97673.16;;;2.33;97.60
56668;BME280;42542;48.360;10.958;2023-02-14T16:42:49;97672.63;;;2.27;97.35
56668;BME280;42542;48.360;10.958;2023-02-14T16:45:54;97679.97;;;2.20;97.71
56668;BME280;42542;48.360;10.958;2023-02-14T16:48:58;97684.25;;;2.23;98.30
56668;BME280;42542;48.360;10.958;2023-02-14T16:52:01;97687.97;;;2.19;98.41
56668;BME280;42542;48.360;10.958;2023-02-14T16:55:13;97695.88;;;2.19;98.02
56668;BME280;42542;48.360;10.958;2023-02-14T16:58:16;97690.84;;;2.14;97.95
56668;BME280;42542;48.360;10.958;2023-02-14T17:01:20;97699.13;;;2.07;97.61
56668;BME280;42542;48.360;10.958;2023-02-14T17:04:23;97701.13;;;2.02;97.75
56668;BME280;42542;48.360;10.958;2023-02-14T17:07:31;97697.06;;;1.94;98.25
56668;BME280;42542;48.360;10.958;2023-02-14T17:10:38;97694.56;;;1.91;98.13
56668;BME280;42542;48.360;10.958;2023-02-14T17:13:42;97701.69;;;1.89;98.73
56668;BME280;42542;48.360;10.958;2023-02-14T17:16:56;97696.03;;;1.80;98.41
56668;BME280;42542;48.360;10.958;2023-02-14T17:19:59;97692.66;;;1.76;98.61
56668;BME280;42542;48.360;10.958;2023-02-14T17:23:04;97686.81;;;1.70;98.45
56668;BME280;42542;48.360;10.958;2023-02-14T17:26:07;97696.38;;;1.72;98.99
56668;BME280;42542;48.360;10.958;2023-02-14T17:29:10;97694.94;;;1.65;98.49
56668;BME280;42542;48.360;10.958;2023-02-14T17:32:18;97697.59;;;1.65;98.73
56668;BME280;42542;48.360;10.958;2023-02-14T17:35:24;97683.13;;;1.55;98.64
56668;BME280;42542;48.360;10.958;2023-02-14T17:38:27;97692.72;;;1.56;99.48
56668;BME280;42542;48.360;10.958;2023-02-14T17:41:30;97702.47;;;1.54;99.58
56668;BME280;42542;48.360;10.958;2023-02-14T17:44:33;97694.81;;;1.49;99.03
56668;BME280;42542;48.360;10.958;2023-02-14T17:47:37;97691.50;;;1.44;99.19
56668;BME280;42542;48.360;10.958;2023-02-14T17:50:42;97696.94;;;1.41;100.00
56668;BME280;42542;48.360;10.958;2023-02-14T17:53:44;97690.88;;;1.39;100.00
56668;BME280;42542;48.360;10.958;2023-02-14T17:56:48;97685.81;;;1.35;100.00
56668;BME280;42542;48.360;10.958;2023-02-14T17:59:50;97686.78;;;1.32;100.00
56668;BME280;42542;48.360;10.958;2023-02-14T18:02:54;97689.50;;;1.31;100.00
56668;BME280;42542;48.360;10.958;2023-02-14T18:06:01;97690.50;;;1.28;100.00
56668;BME280;42542;48.360;10.958;2023-02-14T18:09:06;97685.44;;;1.24;100.00
56668;BME280;42542;48.360;10.958;2023-02-14T18:12:12;97697.84;;;1.22;99.99
56668;BME280;42542;48.360;10.958;2023-02-14T18:15:16;97692.75;;;1.17;100.00
56668;BME280;42542;48.360;10.958;2023-02-14T18:18:23;97695.53;;;1.14;100.00
56668;BME280;42542;48.360;10.958;2023-02-14T18:21:25;97689.59;;;1.09;100.00
56668;BME280;42542;48.360;10.958;2023-02-14T18:24:31;97687.06;;;1.07;100.00